Terminal Aerodrome Forecast
Issued by NWS

Home | Current Version | Previous Version | Graphics & Text | Print | Product List | Glossary On
Versions: 1 2 3 4 5 6 7 8 9 10 11 12 13 14 15 16 17
456
FTUS43 KBIS 071125
TAFMOT
TAF
KMOT 071125Z 0712/0812 29028G38KT P6SM -SHSN OVC025
     FM071500 30032G45KT 5SM -SHSN BLSN OVC015
     FM071800 30034G48KT 2SM -SHSN BLSN OVC015
     FM072200 32032G45KT 6SM -SHSN BLSN OVC020
     FM080400 31030G42KT P6SM BKN020
     FM081100 31020G28KT P6SM BKN015=

USA.gov is the U.S. government's official web portal to all federal, state and local government web resources and services.